sensor_id;sensor_type;location;lat;lon;timestamp;P1;durP1;ratioP1;P2;durP2;ratioP2
55879;SDS011;41802;51.564;-1.838;2023-06-19T00:01:20;15.52;;;8.00;;
55879;SDS011;41802;51.564;-1.838;2023-06-19T00:03:47;17.63;;;8.67;;
55879;SDS011;41802;51.564;-1.838;2023-06-19T00:06:15;16.10;;;8.95;;
55879;SDS011;41802;51.564;-1.838;2023-06-19T00:08:43;19.98;;;9.00;;
55879;SDS011;41802;51.564;-1.838;2023-06-19T00:11:11;17.60;;;7.70;;
55879;SDS011;41802;51.564;-1.838;2023-06-19T00:13:38;16.13;;;8.00;;
55879;SDS011;41802;51.564;-1.838;2023-06-19T00:16:06;18.97;;;8.60;;
55879;SDS011;41802;51.564;-1.838;2023-06-19T00:18:37;17.13;;;8.10;;
55879;SDS011;41802;51.564;-1.838;2023-06-19T00:21:08;16.30;;;8.20;;
55879;SDS011;41802;51.564;-1.838;2023-06-19T00:23:35;19.60;;;9.07;;
55879;SDS011;41802;51.564;-1.838;2023-06-19T00:26:03;18.10;;;8.80;;
55879;SDS011;41802;51.564;-1.838;2023-06-19T00:28:31;19.03;;;8.70;;
55879;SDS011;41802;51.564;-1.838;2023-06-19T00:30:59;18.48;;;8.63;;
55879;SDS011;41802;51.564;-1.838;2023-06-19T00:33:27;16.73;;;8.45;;
55879;SDS011;41802;51.564;-1.838;2023-06-19T00:35:57;20.75;;;9.63;;
55879;SDS011;41802;51.564;-1.838;2023-06-19T00:38:24;18.20;;;8.40;;
55879;SDS011;41802;51.564;-1.838;2023-06-19T00:40:52;16.93;;;8.87;;
55879;SDS011;41802;51.564;-1.838;2023-06-19T00:43:20;16.38;;;8.13;;
55879;SDS011;41802;51.564;-1.838;2023-06-19T00:45:47;16.55;;;8.80;;
55879;SDS011;41802;51.564;-1.838;2023-06-19T00:48:15;19.80;;;9.20;;
55879;SDS011;41802;51.564;-1.838;2023-06-19T00:50:43;17.63;;;8.82;;
55879;SDS011;41802;51.564;-1.838;2023-06-19T00:53:12;19.13;;;9.30;;
55879;SDS011;41802;51.564;-1.838;2023-06-19T00:55:40;20.85;;;9.57;;
55879;SDS011;41802;51.564;-1.838;2023-06-19T00:58:10;18.63;;;8.43;;
55879;SDS011;41802;51.564;-1.838;2023-06-19T01:00:38;18.30;;;9.00;;
55879;SDS011;41802;51.564;-1.838;2023-06-19T01:03:10;19.23;;;8.82;;
55879;SDS011;41802;51.564;-1.838;2023-06-19T01:05:42;23.53;;;9.77;;
55879;SDS011;41802;51.564;-1.838;2023-06-19T01:08:10;19.85;;;9.10;;
55879;SDS011;41802;51.564;-1.838;2023-06-19T01:10:41;23.70;;;9.57;;
55879;SDS011;41802;51.564;-1.838;2023-06-19T01:13:12;18.55;;;8.80;;
55879;SDS011;41802;51.564;-1.838;2023-06-19T01:15:42;16.40;;;8.60;;
55879;SDS011;41802;51.564;-1.838;2023-06-19T01:18:10;19.30;;;8.97;;
55879;SDS011;41802;51.564;-1.838;2023-06-19T01:20:38;18.30;;;8.10;;
55879;SDS011;41802;51.564;-1.838;2023-06-19T01:23:08;19.17;;;9.20;;
55879;SDS011;41802;51.564;-1.838;2023-06-19T01:25:36;19.65;;;9.05;;
55879;SDS011;41802;51.564;-1.838;2023-06-19T01:28:06;23.38;;;9.50;;
55879;SDS011;41802;51.564;-1.838;2023-06-19T01:30:36;22.40;;;8.40;;
55879;SDS011;41802;51.564;-1.838;2023-06-19T01:33:12;19.70;;;8.77;;
55879;SDS011;41802;51.564;-1.838;2023-06-19T01:35:43;17.23;;;8.35;;
55879;SDS011;41802;51.564;-1.838;2023-06-19T01:38:14;19.63;;;8.57;;
55879;SDS011;41802;51.564;-1.838;2023-06-19T01:40:41;21.02;;;9.02;;
55879;SDS011;41802;51.564;-1.838;2023-06-19T01:43:10;19.63;;;9.00;;
55879;SDS011;41802;51.564;-1.838;2023-06-19T01:45:38;18.52;;;9.20;;
55879;SDS011;41802;51.564;-1.838;2023-06-19T01:48:05;18.25;;;9.18;;
55879;SDS011;41802;51.564;-1.838;2023-06-19T01:50:33;20.02;;;9.90;;
55879;SDS011;41802;51.564;-1.838;2023-06-19T01:53:02;19.65;;;8.95;;
55879;SDS011;41802;51.564;-1.838;2023-06-19T01:55:31;19.97;;;9.13;;
55879;SDS011;41802;51.564;-1.838;2023-06-19T01:57:59;16.98;;;8.32;;
55879;SDS011;41802;51.564;-1.838;2023-06-19T02:00:27;20.88;;;9.13;;
55879;SDS011;41802;51.564;-1.838;2023-06-19T02:02:54;18.10;;;8.77;;
55879;SDS011;41802;51.564;-1.838;2023-06-19T02:05:22;20.60;;;8.93;;
55879;SDS011;41802;51.564;-1.838;2023-06-19T02:07:50;19.87;;;8.60;;
55879;SDS011;41802;51.564;-1.838;2023-06-19T02:10:18;19.35;;;9.48;;
55879;SDS011;41802;51.564;-1.838;2023-06-19T02:12:47;19.55;;;9.07;;
55879;SDS011;41802;51.564;-1.838;2023-06-19T02:15:15;21.08;;;8.57;;
55879;SDS011;41802;51.564;-1.838;2023-06-19T02:17:43;23.17;;;8.98;;
55879;SDS011;41802;51.564;-1.838;2023-06-19T02:20:11;21.17;;;9.13;;
55879;SDS011;41802;51.564;-1.838;2023-06-19T02:22:40;23.65;;;9.50;;
55879;SDS011;41802;51.564;-1.838;2023-06-19T02:25:08;16.90;;;8.45;;
55879;SDS011;41802;51.564;-1.838;2023-06-19T02:27:35;22.50;;;9.35;;
55879;SDS011;41802;51.564;-1.838;2023-06-19T02:30:05;19.85;;;7.93;;
55879;SDS011;41802;51.564;-1.838;2023-06-19T02:32:33;17.77;;;8.53;;
55879;SDS011;41802;51.564;-1.838;2023-06-19T02:35:02;19.05;;;8.32;;
55879;SDS011;41802;51.564;-1.838;2023-06-19T02:37:29;22.10;;;9.15;;
55879;SDS011;41802;51.564;-1.838;2023-06-19T02:39:57;19.15;;;8.50;;
55879;SDS011;41802;51.564;-1.838;2023-06-19T02:42:25;16.63;;;8.65;;
55879;SDS011;41802;51.564;-1.838;2023-06-19T02:44:53;18.40;;;8.63;;
55879;SDS011;41802;51.564;-1.838;2023-06-19T02:47:22;20.27;;;9.02;;
55879;SDS011;41802;51.564;-1.838;2023-06-19T02:49:49;20.33;;;8.85;;
55879;SDS011;41802;51.564;-1.838;2023-06-19T02:52:18;19.50;;;8.80;;
55879;SDS011;41802;51.564;-1.838;2023-06-19T02:54:46;21.17;;;9.38;;
55879;SDS011;41802;51.564;-1.838;2023-06-19T02:57:13;21.43;;;9.60;;
55879;SDS011;41802;51.564;-1.838;2023-06-19T02:59:41;20.30;;;9.13;;
55879;SDS011;41802;51.564;-1.838;2023-06-19T03:02:09;19.98;;;9.70;;
55879;SDS011;41802;51.564;-1.838;2023-06-19T03:04:38;20.08;;;9.20;;
55879;SDS011;41802;51.564;-1.838;2023-06-19T03:07:07;20.17;;;8.13;;
55879;SDS011;41802;51.564;-1.838;2023-06-19T03:09:34;20.13;;;9.50;;
55879;SDS011;41802;51.564;-1.838;2023-06-19T03:12:02;21.45;;;8.85;;
55879;SDS011;41802;51.564;-1.838;2023-06-19T03:14:30;21.13;;;9.63;;
55879;SDS011;41802;51.564;-1.838;2023-06-19T03:16:57;18.73;;;9.18;;
55879;SDS011;41802;51.564;-1.838;2023-06-19T03:19:25;22.17;;;9.15;;
55879;SDS011;41802;51.564;-1.838;2023-06-19T03:21:54;21.40;;;8.63;;
55879;SDS011;41802;51.564;-1.838;2023-06-19T03:24:22;20.00;;;8.85;;
55879;SDS011;41802;51.564;-1.838;2023-06-19T03:26:50;23.23;;;9.88;;
55879;SDS011;41802;51.564;-1.838;2023-06-19T03:29:21;17.33;;;8.68;;
55879;SDS011;41802;51.564;-1.838;2023-06-19T03:31:49;19.63;;;9.00;;
55879;SDS011;41802;51.564;-1.838;2023-06-19T03:34:17;18.30;;;8.77;;
55879;SDS011;41802;51.564;-1.838;2023-06-19T03:36:45;20.08;;;9.68;;
55879;SDS011;41802;51.564;-1.838;2023-06-19T03:39:14;22.23;;;8.88;;
55879;SDS011;41802;51.564;-1.838;2023-06-19T03:41:42;18.77;;;9.18;;
55879;SDS011;41802;51.564;-1.838;2023-06-19T03:44:10;18.90;;;8.80;;
55879;SDS011;41802;51.564;-1.838;2023-06-19T03:46:37;17.40;;;8.50;;
55879;SDS011;41802;51.564;-1.838;2023-06-19T03:49:08;18.70;;;9.35;;
55879;SDS011;41802;51.564;-1.838;2023-06-19T03:51:36;19.67;;;9.50;;
55879;SDS011;41802;51.564;-1.838;2023-06-19T03:54:03;22.50;;;9.20;;
55879;SDS011;41802;51.564;-1.838;2023-06-19T03:56:33;22.38;;;9.32;;
55879;SDS011;41802;51.564;-1.838;2023-06-19T03:59:00;21.40;;;9.37;;
55879;SDS011;41802;51.564;-1.838;2023-06-19T04:01:28;22.98;;;8.25;;
55879;SDS011;41802;51.564;-1.838;2023-06-19T04:03:56;18.63;;;8.60;;
55879;SDS011;41802;51.564;-1.838;2023-06-19T04:06:25;23.40;;;9.27;;
55879;SDS011;41802;51.564;-1.838;2023-06-19T04:08:54;22.67;;;8.95;;
55879;SDS011;41802;51.564;-1.838;2023-06-19T04:11:22;20.53;;;9.10;;
55879;SDS011;41802;51.564;-1.838;2023-06-19T04:13:51;20.08;;;9.25;;
55879;SDS011;41802;51.564;-1.838;2023-06-19T04:16:19;17.70;;;8.48;;
55879;SDS011;41802;51.564;-1.838;2023-06-19T04:18:51;20.40;;;9.43;;
55879;SDS011;41802;51.564;-1.838;2023-06-19T04:21:19;19.10;;;9.32;;
55879;SDS011;41802;51.564;-1.838;2023-06-19T04:23:46;19.77;;;8.87;;
55879;SDS011;41802;51.564;-1.838;2023-06-19T04:26:14;18.23;;;8.60;;
55879;SDS011;41802;51.564;-1.838;2023-06-19T04:28:42;20.73;;;8.68;;
55879;SDS011;41802;51.564;-1.838;2023-06-19T04:31:11;21.67;;;9.30;;
55879;SDS011;41802;51.564;-1.838;2023-06-19T04:33:39;21.25;;;8.80;;
55879;SDS011;41802;51.564;-1.838;2023-06-19T04:36:08;23.50;;;9.57;;
55879;SDS011;41802;51.564;-1.838;2023-06-19T04:38:36;19.52;;;8.25;;
55879;SDS011;41802;51.564;-1.838;2023-06-19T04:41:04;21.75;;;9.90;;
55879;SDS011;41802;51.564;-1.838;2023-06-19T04:43:32;20.17;;;10.00;;
55879;SDS011;41802;51.564;-1.838;2023-06-19T04:46:00;21.08;;;9.77;;
55879;SDS011;41802;51.564;-1.838;2023-06-19T04:48:32;21.00;;;10.03;;
55879;SDS011;41802;51.564;-1.838;2023-06-19T04:51:04;21.85;;;9.32;;
55879;SDS011;41802;51.564;-1.838;2023-06-19T04:53:32;20.17;;;10.38;;
55879;SDS011;41802;51.564;-1.838;2023-06-19T04:56:00;22.15;;;10.20;;
55879;SDS011;41802;51.564;-1.838;2023-06-19T04:58:28;19.73;;;10.20;;
55879;SDS011;41802;51.564;-1.838;2023-06-19T05:00:56;26.00;;;11.23;;
55879;SDS011;41802;51.564;-1.838;2023-06-19T05:03:24;25.42;;;10.45;;
55879;SDS011;41802;51.564;-1.838;2023-06-19T05:05:53;27.50;;;12.43;;
55879;SDS011;41802;51.564;-1.838;2023-06-19T05:08:20;27.95;;;11.80;;
55879;SDS011;41802;51.564;-1.838;2023-06-19T05:10:48;26.55;;;10.90;;
55879;SDS011;41802;51.564;-1.838;2023-06-19T05:13:16;26.97;;;12.17;;
55879;SDS011;41802;51.564;-1.838;2023-06-19T05:15:44;23.75;;;10.73;;
55879;SDS011;41802;51.564;-1.838;2023-06-19T05:18:12;27.08;;;12.20;;
55879;SDS011;41802;51.564;-1.838;2023-06-19T05:20:40;26.40;;;11.18;;
55879;SDS011;41802;51.564;-1.838;2023-06-19T05:23:09;26.70;;;11.00;;
55879;SDS011;41802;51.564;-1.838;2023-06-19T05:25:37;23.77;;;10.50;;
55879;SDS011;41802;51.564;-1.838;2023-06-19T05:28:05;21.63;;;10.63;;
55879;SDS011;41802;51.564;-1.838;2023-06-19T05:30:32;26.52;;;10.77;;
55879;SDS011;41802;51.564;-1.838;2023-06-19T05:33:02;21.27;;;9.70;;
55879;SDS011;41802;51.564;-1.838;2023-06-19T05:35:30;23.10;;;10.18;;
55879;SDS011;41802;51.564;-1.838;2023-06-19T05:37:58;22.90;;;10.50;;
55879;SDS011;41802;51.564;-1.838;2023-06-19T05:40:27;22.48;;;10.30;;
55879;SDS011;41802;51.564;-1.838;2023-06-19T05:42:55;20.77;;;10.50;;
55879;SDS011;41802;51.564;-1.838;2023-06-19T05:45:23;25.42;;;10.55;;
55879;SDS011;41802;51.564;-1.838;2023-06-19T05:47:51;20.95;;;10.00;;
55879;SDS011;41802;51.564;-1.838;2023-06-19T05:50:18;27.43;;;10.57;;
55879;SDS011;41802;51.564;-1.838;2023-06-19T05:52:47;23.63;;;10.48;;
55879;SDS011;41802;51.564;-1.838;2023-06-19T05:55:14;22.23;;;10.38;;
55879;SDS011;41802;51.564;-1.838;2023-06-19T05:57:43;25.50;;;10.30;;
55879;SDS011;41802;51.564;-1.838;2023-06-19T06:00:12;20.42;;;9.93;;
55879;SDS011;41802;51.564;-1.838;2023-06-19T06:02:40;25.13;;;11.40;;
55879;SDS011;41802;51.564;-1.838;2023-06-19T06:05:10;26.48;;;11.43;;
55879;SDS011;41802;51.564;-1.838;2023-06-19T06:07:37;25.08;;;10.05;;
55879;SDS011;41802;51.564;-1.838;2023-06-19T06:10:07;26.48;;;11.55;;
55879;SDS011;41802;51.564;-1.838;2023-06-19T06:12:35;26.85;;;12.02;;
55879;SDS011;41802;51.564;-1.838;2023-06-19T06:15:04;26.23;;;11.57;;
55879;SDS011;41802;51.564;-1.838;2023-06-19T06:17:33;23.55;;;10.60;;
55879;SDS011;41802;51.564;-1.838;2023-06-19T06:20:01;23.70;;;10.65;;
55879;SDS011;41802;51.564;-1.838;2023-06-19T06:22:33;24.75;;;11.43;;
55879;SDS011;41802;51.564;-1.838;2023-06-19T06:25:00;24.95;;;11.50;;
55879;SDS011;41802;51.564;-1.838;2023-06-19T06:27:28;24.80;;;9.83;;
55879;SDS011;41802;51.564;-1.838;2023-06-19T06:29:56;25.67;;;10.52;;
55879;SDS011;41802;51.564;-1.838;2023-06-19T06:32:25;23.25;;;11.02;;
55879;SDS011;41802;51.564;-1.838;2023-06-19T06:34:56;23.60;;;10.98;;
55879;SDS011;41802;51.564;-1.838;2023-06-19T06:37:24;26.55;;;10.98;;
55879;SDS011;41802;51.564;-1.838;2023-06-19T06:39:51;27.07;;;12.00;;
55879;SDS011;41802;51.564;-1.838;2023-06-19T06:42:19;25.90;;;11.77;;
55879;SDS011;41802;51.564;-1.838;2023-06-19T06:44:47;31.42;;;11.43;;
55879;SDS011;41802;51.564;-1.838;2023-06-19T06:47:14;29.83;;;11.27;;
55879;SDS011;41802;51.564;-1.838;2023-06-19T06:49:43;24.67;;;10.65;;
55879;SDS011;41802;51.564;-1.838;2023-06-19T06:52:11;25.27;;;11.23;;
55879;SDS011;41802;51.564;-1.838;2023-06-19T06:54:39;25.58;;;12.00;;
55879;SDS011;41802;51.564;-1.838;2023-06-19T06:57:07;25.27;;;11.68;;
55879;SDS011;41802;51.564;-1.838;2023-06-19T06:59:35;25.92;;;11.50;;
55879;SDS011;41802;51.564;-1.838;2023-06-19T07:02:03;23.85;;;10.13;;
55879;SDS011;41802;51.564;-1.838;2023-06-19T07:04:30;20.03;;;9.00;;
55879;SDS011;41802;51.564;-1.838;2023-06-19T07:07:05;17.95;;;9.20;;
55879;SDS011;41802;51.564;-1.838;2023-06-19T07:09:33;23.20;;;9.95;;
55879;SDS011;41802;51.564;-1.838;2023-06-19T07:12:02;23.98;;;9.88;;
55879;SDS011;41802;51.564;-1.838;2023-06-19T07:14:31;23.00;;;9.63;;
55879;SDS011;41802;51.564;-1.838;2023-06-19T07:16:59;19.93;;;9.27;;
55879;SDS011;41802;51.564;-1.838;2023-06-19T07:19:27;18.75;;;8.95;;
55879;SDS011;41802;51.564;-1.838;2023-06-19T07:21:56;20.13;;;8.85;;
55879;SDS011;41802;51.564;-1.838;2023-06-19T07:24:25;18.70;;;9.20;;
55879;SDS011;41802;51.564;-1.838;2023-06-19T07:26:53;13.55;;;6.95;;
55879;SDS011;41802;51.564;-1.838;2023-06-19T07:29:21;21.37;;;8.83;;
55879;SDS011;41802;51.564;-1.838;2023-06-19T07:31:49;23.02;;;8.85;;
55879;SDS011;41802;51.564;-1.838;2023-06-19T07:34:16;24.73;;;9.55;;
55879;SDS011;41802;51.564;-1.838;2023-06-19T07:36:44;16.88;;;7.70;;
55879;SDS011;41802;51.564;-1.838;2023-06-19T07:39:12;18.48;;;8.27;;
55879;SDS011;41802;51.564;-1.838;2023-06-19T07:41:41;21.13;;;9.33;;
55879;SDS011;41802;51.564;-1.838;2023-06-19T07:44:09;18.73;;;8.10;;
55879;SDS011;41802;51.564;-1.838;2023-06-19T07:46:37;18.63;;;8.70;;
55879;SDS011;41802;51.564;-1.838;2023-06-19T07:49:08;16.42;;;8.15;;
55879;SDS011;41802;51.564;-1.838;2023-06-19T07:51:35;17.73;;;8.27;;
55879;SDS011;41802;51.564;-1.838;2023-06-19T07:54:03;19.77;;;7.90;;
55879;SDS011;41802;51.564;-1.838;2023-06-19T07:56:31;16.42;;;7.22;;
55879;SDS011;41802;51.564;-1.838;2023-06-19T07:59:01;17.63;;;7.15;;
55879;SDS011;41802;51.564;-1.838;2023-06-19T08:01:32;12.85;;;6.60;;
55879;SDS011;41802;51.564;-1.838;2023-06-19T08:03:59;12.73;;;7.00;;
55879;SDS011;41802;51.564;-1.838;2023-06-19T08:06:28;12.47;;;5.40;;
55879;SDS011;41802;51.564;-1.838;2023-06-19T08:08:55;13.40;;;5.68;;
55879;SDS011;41802;51.564;-1.838;2023-06-19T08:11:23;13.55;;;6.28;;
55879;SDS011;41802;51.564;-1.838;2023-06-19T08:13:51;13.88;;;6.32;;
55879;SDS011;41802;51.564;-1.838;2023-06-19T08:16:24;13.43;;;6.10;;
55879;SDS011;41802;51.564;-1.838;2023-06-19T08:18:52;15.27;;;6.83;;
55879;SDS011;41802;51.564;-1.838;2023-06-19T08:21:20;11.52;;;5.50;;
55879;SDS011;41802;51.564;-1.838;2023-06-19T08:23:48;17.83;;;6.07;;
55879;SDS011;41802;51.564;-1.838;2023-06-19T08:26:15;11.63;;;5.55;;
55879;SDS011;41802;51.564;-1.838;2023-06-19T08:28:44;10.32;;;5.32;;
55879;SDS011;41802;51.564;-1.838;2023-06-19T08:31:11;11.30;;;4.60;;
55879;SDS011;41802;51.564;-1.838;2023-06-19T08:33:42;13.43;;;5.60;;
55879;SDS011;41802;51.564;-1.838;2023-06-19T08:36:09;16.30;;;5.35;;
55879;SDS011;41802;51.564;-1.838;2023-06-19T08:38:37;15.73;;;5.43;;
55879;SDS011;41802;51.564;-1.838;2023-06-19T08:41:05;14.57;;;5.60;;
55879;SDS011;41802;51.564;-1.838;2023-06-19T08:43:32;14.63;;;4.70;;
55879;SDS011;41802;51.564;-1.838;2023-06-19T08:46:04;9.57;;;4.45;;
55879;SDS011;41802;51.564;-1.838;2023-06-19T08:48:34;12.88;;;4.85;;
55879;SDS011;41802;51.564;-1.838;2023-06-19T08:51:03;13.57;;;4.85;;
55879;SDS011;41802;51.564;-1.838;2023-06-19T08:53:33;11.18;;;5.43;;
55879;SDS011;41802;51.564;-1.838;2023-06-19T08:56:01;12.10;;;5.93;;
55879;SDS011;41802;51.564;-1.838;2023-06-19T08:58:28;13.27;;;5.18;;
55879;SDS011;41802;51.564;-1.838;2023-06-19T09:00:57;10.30;;;4.85;;
55879;SDS011;41802;51.564;-1.838;2023-06-19T09:03:25;10.52;;;4.15;;
55879;SDS011;41802;51.564;-1.838;2023-06-19T09:05:53;11.30;;;4.43;;
55879;SDS011;41802;51.564;-1.838;2023-06-19T09:08:22;10.87;;;5.37;;
55879;SDS011;41802;51.564;-1.838;2023-06-19T09:10:55;10.60;;;4.22;;
55879;SDS011;41802;51.564;-1.838;2023-06-19T09:13:22;9.40;;;4.40;;
55879;SDS011;41802;51.564;-1.838;2023-06-19T09:15:56;9.05;;;4.05;;
55879;SDS011;41802;51.564;-1.838;2023-06-19T09:18:25;8.93;;;3.65;;
55879;SDS011;41802;51.564;-1.838;2023-06-19T09:20:54;11.33;;;4.13;;
55879;SDS011;41802;51.564;-1.838;2023-06-19T09:23:23;10.13;;;4.80;;
55879;SDS011;41802;51.564;-1.838;2023-06-19T09:25:51;10.25;;;4.30;;
55879;SDS011;41802;51.564;-1.838;2023-06-19T09:28:20;11.68;;;4.88;;
55879;SDS011;41802;51.564;-1.838;2023-06-19T09:30:52;10.82;;;4.57;;
55879;SDS011;41802;51.564;-1.838;2023-06-19T09:33:21;11.43;;;4.80;;
55879;SDS011;41802;51.564;-1.838;2023-06-19T09:35:49;13.52;;;4.97;;
55879;SDS011;41802;51.564;-1.838;2023-06-19T09:38:17;9.23;;;4.30;;
55879;SDS011;41802;51.564;-1.838;2023-06-19T09:40:47;9.40;;;3.95;;
55879;SDS011;41802;51.564;-1.838;2023-06-19T09:43:16;10.80;;;4.15;;
55879;SDS011;41802;51.564;-1.838;2023-06-19T09:45:47;11.47;;;4.67;;
55879;SDS011;41802;51.564;-1.838;2023-06-19T09:48:18;11.95;;;4.82;;
55879;SDS011;41802;51.564;-1.838;2023-06-19T09:50:48;9.95;;;4.55;;
55879;SDS011;41802;51.564;-1.838;2023-06-19T09:53:18;11.52;;;4.47;;
55879;SDS011;41802;51.564;-1.838;2023-06-19T09:55:49;9.57;;;4.03;;
55879;SDS011;41802;51.564;-1.838;2023-06-19T09:58:18;9.20;;;3.70;;
55879;SDS011;41802;51.564;-1.838;2023-06-19T10:00:47;9.70;;;4.70;;
55879;SDS011;41802;51.564;-1.838;2023-06-19T10:03:16;9.15;;;4.03;;
55879;SDS011;41802;51.564;-1.838;2023-06-19T10:05:44;8.88;;;4.03;;
55879;SDS011;41802;51.564;-1.838;2023-06-19T10:08:30;11.13;;;4.15;;
55879;SDS011;41802;51.564;-1.838;2023-06-19T10:10:59;9.80;;;4.37;;
55879;SDS011;41802;51.564;-1.838;2023-06-19T10:13:31;10.45;;;4.05;;
55879;SDS011;41802;51.564;-1.838;2023-06-19T10:15:59;8.27;;;3.97;;
55879;SDS011;41802;51.564;-1.838;2023-06-19T10:18:27;7.55;;;3.90;;
55879;SDS011;41802;51.564;-1.838;2023-06-19T10:20:55;9.07;;;4.35;;
55879;SDS011;41802;51.564;-1.838;2023-06-19T10:23:25;8.00;;;3.73;;
55879;SDS011;41802;51.564;-1.838;2023-06-19T10:25:55;9.05;;;3.90;;
55879;SDS011;41802;51.564;-1.838;2023-06-19T10:28:25;6.50;;;2.70;;
55879;SDS011;41802;51.564;-1.838;2023-06-19T10:30:54;9.38;;;3.67;;
55879;SDS011;41802;51.564;-1.838;2023-06-19T10:33:23;9.85;;;3.60;;
55879;SDS011;41802;51.564;-1.838;2023-06-19T10:35:51;8.23;;;3.53;;
55879;SDS011;41802;51.564;-1.838;2023-06-19T10:38:19;9.13;;;3.97;;
55879;SDS011;41802;51.564;-1.838;2023-06-19T10:40:46;10.80;;;3.58;;
55879;SDS011;41802;51.564;-1.838;2023-06-19T10:43:19;9.68;;;3.45;;
55879;SDS011;41802;51.564;-1.838;2023-06-19T10:45:49;7.93;;;3.70;;
55879;SDS011;41802;51.564;-1.838;2023-06-19T10:48:20;8.70;;;3.03;;
55879;SDS011;41802;51.564;-1.838;2023-06-19T10:50:49;7.75;;;3.13;;
55879;SDS011;41802;51.564;-1.838;2023-06-19T10:53:24;8.13;;;3.13;;
55879;SDS011;41802;51.564;-1.838;2023-06-19T10:55:55;8.05;;;3.15;;
55879;SDS011;41802;51.564;-1.838;2023-06-19T10:58:23;8.90;;;3.45;;
55879;SDS011;41802;51.564;-1.838;2023-06-19T11:00:52;8.47;;;3.33;;
55879;SDS011;41802;51.564;-1.838;2023-06-19T11:03:21;10.90;;;2.50;;
55879;SDS011;41802;51.564;-1.838;2023-06-19T11:05:49;8.05;;;2.72;;
55879;SDS011;41802;51.564;-1.838;2023-06-19T11:08:17;7.93;;;2.92;;
55879;SDS011;41802;51.564;-1.838;2023-06-19T11:10:45;7.53;;;2.85;;
55879;SDS011;41802;51.564;-1.838;2023-06-19T11:13:13;5.87;;;2.60;;
55879;SDS011;41802;51.564;-1.838;2023-06-19T11:15:41;8.52;;;3.10;;
55879;SDS011;41802;51.564;-1.838;2023-06-19T11:18:10;7.70;;;2.97;;
55879;SDS011;41802;51.564;-1.838;2023-06-19T11:20:45;8.13;;;3.22;;
55879;SDS011;41802;51.564;-1.838;2023-06-19T11:23:14;10.00;;;3.15;;
55879;SDS011;41802;51.564;-1.838;2023-06-19T11:25:42;8.57;;;3.43;;
55879;SDS011;41802;51.564;-1.838;2023-06-19T11:28:12;8.80;;;3.38;;
55879;SDS011;41802;51.564;-1.838;2023-06-19T11:30:41;9.68;;;3.58;;
55879;SDS011;41802;51.564;-1.838;2023-06-19T11:33:18;8.32;;;3.67;;
55879;SDS011;41802;51.564;-1.838;2023-06-19T11:35:53;9.57;;;3.50;;
55879;SDS011;41802;51.564;-1.838;2023-06-19T11:38:23;9.13;;;3.60;;
55879;SDS011;41802;51.564;-1.838;2023-06-19T11:40:53;9.57;;;3.67;;
55879;SDS011;41802;51.564;-1.838;2023-06-19T11:43:24;10.23;;;3.53;;
55879;SDS011;41802;51.564;-1.838;2023-06-19T11:45:53;8.13;;;2.90;;
55879;SDS011;41802;51.564;-1.838;2023-06-19T11:48:23;7.35;;;2.92;;
55879;SDS011;41802;51.564;-1.838;2023-06-19T11:50:52;9.67;;;2.90;;
55879;SDS011;41802;51.564;-1.838;2023-06-19T11:53:20;5.38;;;2.28;;
55879;SDS011;41802;51.564;-1.838;2023-06-19T11:55:48;7.13;;;2.90;;
55879;SDS011;41802;51.564;-1.838;2023-06-19T11:58:16;6.00;;;2.67;;
55879;SDS011;41802;51.564;-1.838;2023-06-19T12:00:44;7.40;;;2.00;;
55879;SDS011;41802;51.564;-1.838;2023-06-19T12:03:12;8.00;;;2.70;;
55879;SDS011;41802;51.564;-1.838;2023-06-19T12:05:41;7.78;;;2.25;;
55879;SDS011;41802;51.564;-1.838;2023-06-19T12:08:10;8.02;;;2.35;;
55879;SDS011;41802;51.564;-1.838;2023-06-19T12:10:39;8.40;;;2.47;;
55879;SDS011;41802;51.564;-1.838;2023-06-19T12:13:10;5.88;;;2.50;;
55879;SDS011;41802;51.564;-1.838;2023-06-19T12:15:39;8.17;;;2.80;;
55879;SDS011;41802;51.564;-1.838;2023-06-19T12:18:06;6.70;;;2.53;;
55879;SDS011;41802;51.564;-1.838;2023-06-19T12:20:34;6.28;;;2.50;;
55879;SDS011;41802;51.564;-1.838;2023-06-19T12:23:03;10.55;;;2.47;;
55879;SDS011;41802;51.564;-1.838;2023-06-19T12:25:31;9.82;;;2.80;;
55879;SDS011;41802;51.564;-1.838;2023-06-19T12:27:59;6.67;;;2.33;;
55879;SDS011;41802;51.564;-1.838;2023-06-19T12:30:27;6.97;;;2.60;;
55879;SDS011;41802;51.564;-1.838;2023-06-19T12:32:54;9.65;;;2.40;;
55879;SDS011;41802;51.564;-1.838;2023-06-19T12:35:22;6.35;;;2.38;;
55879;SDS011;41802;51.564;-1.838;2023-06-19T12:37:51;7.72;;;2.80;;
55879;SDS011;41802;51.564;-1.838;2023-06-19T12:40:22;7.13;;;2.67;;
55879;SDS011;41802;51.564;-1.838;2023-06-19T12:42:51;6.72;;;2.65;;
55879;SDS011;41802;51.564;-1.838;2023-06-19T12:45:18;8.18;;;2.45;;
55879;SDS011;41802;51.564;-1.838;2023-06-19T12:47:46;6.82;;;2.67;;
55879;SDS011;41802;51.564;-1.838;2023-06-19T12:50:17;5.70;;;2.17;;
55879;SDS011;41802;51.564;-1.838;2023-06-19T12:52:45;6.50;;;2.13;;
55879;SDS011;41802;51.564;-1.838;2023-06-19T12:55:13;7.28;;;2.30;;
55879;SDS011;41802;51.564;-1.838;2023-06-19T12:57:42;9.95;;;2.35;;
55879;SDS011;41802;51.564;-1.838;2023-06-19T13:00:11;7.53;;;2.83;;
55879;SDS011;41802;51.564;-1.838;2023-06-19T13:02:39;8.75;;;2.22;;
55879;SDS011;41802;51.564;-1.838;2023-06-19T13:05:09;8.47;;;2.37;;
55879;SDS011;41802;51.564;-1.838;2023-06-19T13:07:37;6.68;;;2.42;;
55879;SDS011;41802;51.564;-1.838;2023-06-19T13:10:05;8.63;;;2.58;;
55879;SDS011;41802;51.564;-1.838;2023-06-19T13:12:33;9.05;;;2.55;;
55879;SDS011;41802;51.564;-1.838;2023-06-19T13:15:03;7.85;;;2.60;;
55879;SDS011;41802;51.564;-1.838;2023-06-19T13:17:31;6.50;;;2.03;;
55879;SDS011;41802;51.564;-1.838;2023-06-19T13:19:59;6.50;;;1.95;;
55879;SDS011;41802;51.564;-1.838;2023-06-19T13:22:27;7.95;;;2.08;;
55879;SDS011;41802;51.564;-1.838;2023-06-19T13:24:55;7.57;;;2.30;;
55879;SDS011;41802;51.564;-1.838;2023-06-19T13:27:27;5.68;;;1.88;;
55879;SDS011;41802;51.564;-1.838;2023-06-19T13:29:55;6.50;;;2.23;;
55879;SDS011;41802;51.564;-1.838;2023-06-19T13:32:24;6.03;;;1.98;;
55879;SDS011;41802;51.564;-1.838;2023-06-19T13:34:52;6.18;;;1.77;;
55879;SDS011;41802;51.564;-1.838;2023-06-19T13:37:20;6.90;;;1.75;;
55879;SDS011;41802;51.564;-1.838;2023-06-19T13:39:49;4.57;;;1.83;;
55879;SDS011;41802;51.564;-1.838;2023-06-19T13:42:17;7.00;;;2.23;;
55879;SDS011;41802;51.564;-1.838;2023-06-19T13:44:45;5.43;;;2.13;;
55879;SDS011;41802;51.564;-1.838;2023-06-19T13:47:16;8.20;;;1.98;;
55879;SDS011;41802;51.564;-1.838;2023-06-19T13:49:45;5.90;;;2.10;;
55879;SDS011;41802;51.564;-1.838;2023-06-19T13:52:13;6.07;;;2.20;;
55879;SDS011;41802;51.564;-1.838;2023-06-19T13:54:41;7.30;;;2.30;;
55879;SDS011;41802;51.564;-1.838;2023-06-19T13:57:09;5.28;;;1.70;;
55879;SDS011;41802;51.564;-1.838;2023-06-19T13:59:37;7.60;;;1.90;;
55879;SDS011;41802;51.564;-1.838;2023-06-19T14:02:05;5.60;;;1.80;;
55879;SDS011;41802;51.564;-1.838;2023-06-19T14:04:32;5.20;;;1.67;;
55879;SDS011;41802;51.564;-1.838;2023-06-19T14:07:02;5.83;;;2.07;;
55879;SDS011;41802;51.564;-1.838;2023-06-19T14:09:30;6.55;;;2.40;;
55879;SDS011;41802;51.564;-1.838;2023-06-19T14:12:00;5.43;;;1.88;;
55879;SDS011;41802;51.564;-1.838;2023-06-19T14:14:28;6.57;;;2.00;;
55879;SDS011;41802;51.564;-1.838;2023-06-19T14:16:56;6.40;;;1.75;;
55879;SDS011;41802;51.564;-1.838;2023-06-19T14:19:25;5.83;;;2.13;;
55879;SDS011;41802;51.564;-1.838;2023-06-19T14:21:57;6.75;;;2.00;;
55879;SDS011;41802;51.564;-1.838;2023-06-19T14:24:26;5.85;;;2.17;;
55879;SDS011;41802;51.564;-1.838;2023-06-19T14:26:54;5.22;;;1.90;;
55879;SDS011;41802;51.564;-1.838;2023-06-19T14:29:22;5.18;;;1.92;;
55879;SDS011;41802;51.564;-1.838;2023-06-19T14:31:50;6.50;;;2.13;;